• Join FlightAware (Why Join?)
  • Login
  • US Flag 
06:51AM EDT


 

Airport Tracker/Info


-or-


 

Live Flight TrackerFlight Track Log ✈ SWA428 ✈ 18-Oct-2013 ✈ KMCO - KMHT

Flight Track Log - Related Links

Times and Time Zones

All times are in EDT time to prevent confusion due to time zone crossing. See the SWA428 flight status page for this flight to view local times or setup timezone preferences in your user account.

Time Position Orientation Groundspeed Altitude Reporting Facility
EDT Latitude Longitude Course Direction KTS MPH feet Rate Location/Type
09:31AM 28.4000 -81.3000 350° North 169 194 900  Level Orlando TRACON
09:32AM 28.3833 -81.2833 139° Southeast 176 203 1,900 2,220 Climbing Orlando TRACON
09:33AM 28.3500 -81.2333 127° Southeast 222 255 4,300 2,220 Climbing Orlando TRACON
09:34AM 28.3500 -81.1667 90° East 261 300 6,400 2,700 Climbing Orlando TRACON
09:35AM 28.4000 -81.1000 50° Northeast 303 349 9,800 2,640 Climbing Orlando TRACON
09:36AM 28.5325 -81.1533 341° North 352 405 13,200 2,340 Climbing Jacksonville Center
09:37AM 29.1186 -80.9212 350° North  Level Estimated
09:37AM 28.6375 -81.1989 339° North 362 417 15,800  Level Jacksonville Center
09:38AM 28.7403 -81.2422 340° North 376 433 18,500 2,400 Climbing Jacksonville Center
09:39AM 28.8472 -81.2878 340° North 387 445 20,700 2,220 Climbing Jacksonville Center
09:40AM 28.9606 -81.3311 342° North 405 466 23,000 2,100 Climbing Jacksonville Center
09:41AM 29.0739 -81.3792 340° North 417 480 24,900 1,860 Climbing Jacksonville Center
09:42AM 29.1994 -81.3986 352° North 443 510 26,800 1,500 Climbing Jacksonville Center
09:43AM 29.3308 -81.4086 356° North 458 527 27,900 1,800 Climbing Jacksonville Center
09:45AM 29.5922 -81.4406 354° North 473 544 32,200 2,040 Climbing Jacksonville Center
09:46AM 29.7219 -81.4506 356° North 467 537 34,100 1,860 Climbing Jacksonville Center
09:47AM 29.8389 -81.4631 355° North 461 531 36,000 1,440 Climbing Jacksonville Center
09:48AM 29.9583 -81.4972 346° North 455 524 37,000 900 Climbing Jacksonville Center
09:49AM 30.0714 -81.5436 340° North 433 498 37,800 780 Climbing Jacksonville Center
09:50AM 30.1889 -81.5781 346° North 433 498 38,600 600 Climbing Jacksonville Center
09:51AM 30.3181 -81.5642 North 440 506 39,000 180 Climbing Jacksonville Center
09:52AM 30.4472 -81.5408 North 456 525 39,000  Level Jacksonville Center
09:53AM 30.5744 -81.5172 North 456 525 39,000  Level Jacksonville Center
09:54AM 30.7014 -81.4914 10° North 463 533 39,000  Level Jacksonville Center
09:55AM 30.8286 -81.4678 North 463 533 39,000  Level Jacksonville Center
09:56AM 30.9536 -81.4417 10° North 463 533 39,000  Level Jacksonville Center
09:57AM 31.0806 -81.4178 North 463 533 39,000  Level Jacksonville Center
09:58AM 31.2119 -81.3939 North 468 539 39,000  Level Jacksonville Center
09:59AM 31.3492 -81.3625 11° North 461 531 39,000  Level Jacksonville Center
10:00AM 31.4681 -81.3361 11° North 471 542 39,000  Level Jacksonville Center
10:01AM 31.6097 -81.3094 North 471 542 39,000  Level Jacksonville Center
10:02AM 31.7367 -81.2828 10° North 466 536 39,000  Level Jacksonville Center
10:03AM 31.8511 -81.2564 11° North 461 531 39,000  Level Jacksonville Center
10:04AM 31.9878 -81.1781 26° Northeast 487 560 39,000  Level Jacksonville Center
10:05AM 32.1058 -81.1022 29° Northeast 482 555 39,000  Level Jacksonville Center
10:06AM 32.2300 -81.0211 29° Northeast 493 567 39,000  Level Jacksonville Center
10:07AM 32.3478 -80.9450 29° Northeast 482 555 39,000  Level Jacksonville Center
10:08AM 32.4614 -80.8661 30° Northeast 476 548 39,000  Level Jacksonville Center
10:09AM 32.5811 -80.7872 29° Northeast 484 557 39,000  Level Jacksonville Center
10:10AM 32.6967 -80.7056 31° Northeast 484 557 39,000  Level Jacksonville Center
10:11AM 32.8164 -80.6283 28° Northeast 484 557 39,000  Level Jacksonville Center
10:12AM 32.9361 -80.5511 28° Northeast 484 557 39,000  Level Jacksonville Center
10:13AM 33.0536 -80.4736 29° Northeast 479 551 39,000  Level Jacksonville Center
10:14AM 33.1628 -80.3939 31° Northeast 494 568 39,000  Level Jacksonville Center
10:15AM 33.2967 -80.3106 27° Northeast 499 574 39,000  Level Jacksonville Center
10:16AM 33.4181 -80.2250 30° Northeast 499 574 39,000  Level Jacksonville Center
10:17AM 33.5125 -80.1597 30° Northeast 499 574 39,000  Level Jacksonville Center
10:18AM 33.6419 -80.0686 30° Northeast 494 568 39,000  Level Jacksonville Center
10:19AM 33.7611 -79.9872 30° Northeast 494 568 39,000  Level Jacksonville Center
10:20AM 33.8825 -79.9033 30° Northeast 494 568 39,000  Level Jacksonville Center
10:21AM 34.0033 -79.8189 30° Northeast 494 568 39,000  Level Jacksonville Center
10:22AM 34.1225 -79.7344 30° Northeast 494 568 39,000  Level Jacksonville Center
10:23AM 34.2433 -79.6522 29° Northeast 494 568 39,000  Level Jacksonville Center
10:25AM 34.4464 -79.5483 23° Northeast 497 572 39,000  Level Washington Center
10:26AM 34.5697 -79.4786 25° Northeast 492 566 39,000  Level Washington Center
10:27AM 34.6992 -79.4167 21° North 487 560 39,000  Level Washington Center
10:28AM 34.8244 -79.3467 25° Northeast 487 560 39,000  Level Washington Center
10:29AM 34.9494 -79.2814 23° Northeast 487 560 39,000  Level Washington Center
10:30AM 35.0747 -79.2136 24° Northeast 487 560 39,000  Level Washington Center
10:31AM 35.2019 -79.1481 23° Northeast 487 560 39,000  Level Washington Center
10:32AM 35.3311 -79.0800 23° Northeast 487 560 39,000  Level Washington Center
10:33AM 35.4414 -79.0211 24° Northeast 487 560 39,000  Level Washington Center
10:34AM 35.5728 -78.9525 23° Northeast 487 560 39,000  Level Washington Center
10:35AM 35.6997 -78.8814 24° Northeast 487 560 39,000  Level Washington Center
10:36AM 35.8269 -78.8122 24° Northeast 492 566 39,000  Level Washington Center
10:37AM 35.9483 -78.7222 31° Northeast 492 566 39,000  Level Washington Center
10:38AM 36.0636 -78.6214 35° Northeast 499 574 39,000  Level Washington Center
10:39AM 36.1808 -78.5153 36° Northeast 511 588 39,000  Level Washington Center
10:40AM 36.2981 -78.4139 35° Northeast 511 588 39,000  Level Washington Center
10:41AM 36.4175 -78.3072 36° Northeast 511 588 39,000  Level Washington Center
10:42AM 36.5344 -78.2053 35° Northeast 511 588 39,000  Level Washington Center
10:43AM 36.6581 -78.0878 37° Northeast 505 581 39,000  Level Washington Center
10:44AM 36.7747 -77.9828 36° Northeast 505 581 39,000  Level Washington Center
10:45AM 36.8856 -77.8667 40° Northeast 512 589 39,000  Level Washington Center
10:46AM 36.9739 -77.7186 53° Northeast 512 589 39,000  Level Washington Center
10:47AM 37.0642 -77.5647 54° Northeast 530 610 39,000  Level Washington Center
10:48AM 37.1519 -77.4186 53° Northeast 535 616 39,000  Level Washington Center
10:49AM 37.2397 -77.2667 54° Northeast 535 616 39,000  Level Washington Center
10:50AM 37.3228 -77.1300 53° Northeast 539 620 39,000  Level Washington Center
10:52AM 37.5817 -76.9308 31° Northeast 526 605 39,000  Level Washington Center
10:53AM 37.7017 -76.8411 31° Northeast 511 588 39,000  Level Washington Center
10:54AM 37.8256 -76.7486 31° Northeast 506 582 39,000  Level Washington Center
10:55AM 37.9475 -76.6556 31° Northeast 506 582 39,000  Level Washington Center
10:56AM 38.0711 -76.5650 30° Northeast 506 582 39,000  Level Washington Center
10:57AM 38.1908 -76.4714 32° Northeast 506 582 39,000  Level Washington Center
10:58AM 38.2894 -76.3933 32° Northeast 511 588 39,000  Level Washington Center
10:59AM 38.4194 -76.2781 35° Northeast 511 588 39,000  Level Washington Center
11:00AM 38.5492 -76.1572 36° Northeast 521 600 39,000  Level Washington Center
11:01AM 38.6936 -76.0278 35° Northeast 521 600 39,000  Level Washington Center
11:02AM 38.8108 -75.9192 36° Northeast 521 600 39,000  Level Washington Center
11:03AM 38.9278 -75.8050 37° Northeast 521 600 39,000  Level Washington Center
11:04AM 39.0444 -75.6958 36° Northeast 521 600 39,000  Level Washington Center
11:05AM 39.1697 -75.6022 30° Northeast 521 600 39,000  Level Washington Center
11:06AM 39.2947 -75.5244 26° Northeast 508 585 39,000  Level Washington Center
11:07AM 39.4217 -75.4439 26° Northeast 497 572 39,000  Level Washington Center
11:08AM 39.5486 -75.3656 25° Northeast 497 572 39,000  Level Washington Center
11:09AM 39.6714 -75.2869 26° Northeast 492 566 39,000  Level Washington Center
11:10AM 39.7944 -75.2125 25° Northeast 493 567 39,000  Level New York Center
11:11AM 39.9058 -75.1331 29° Northeast 515 593 39,000  Level New York Center
11:12AM 40.0381 -75.0519 25° Northeast 515 593 39,000  Level New York Center
11:13AM 40.1617 -74.9700 27° Northeast 520 598 39,000  Level New York Center
11:14AM 40.2894 -74.8933 25° Northeast 510 587 39,000  Level New York Center
11:15AM 40.4228 -74.8358 18° North 502 578 39,000  Level New York Center
11:16AM 40.5561 -74.7781 18° North 497 572 39,000  Level New York Center
11:17AM 40.6872 -74.7228 18° North 492 566 39,000  Level New York Center
11:18AM 40.8203 -74.6647 18° North 492 566 39,000  Level New York Center
11:19AM 40.9514 -74.6064 19° North 492 566 39,000  Level New York Center
11:20AM 41.1558 -74.5189 18° North 504 580 39,000  Level Boston Center
11:21AM 41.2903 -74.4622 18° North 504 580 39,000 -60 Level Boston Center
11:22AM 41.4247 -74.4031 18° North 504 580 38,900  Descending Boston Center
11:23AM 41.5569 -74.3458 18° North 498 573 39,000 -1,080 Climbing Boston Center
11:24AM 41.6850 -74.2858 19° North 498 573 36,800 -2,760 Descending Boston Center
11:25AM 41.8297 -74.2261 17° North 489 563 33,600 -3,360 Descending Boston Center
11:26AM 41.9622 -74.1656 19° North 489 563 30,200 -2,940 Descending Boston Center
11:27AM 42.0631 -74.0956 27° Northeast 489 563 27,700 -2,880 Descending Boston Center
11:28AM 42.1556 -73.8964 58° Northeast 477 549 24,500 -2,040 Descending Boston Center
11:29AM 42.2222 -73.7269 62° Northeast 487 560 23,700 -900 Descending Boston Center
11:30AM 42.2842 -73.5767 61° Northeast 500 575 22,700 -1,020 Descending Boston Center
11:31AM 42.3547 -73.4067 61° Northeast 476 548 21,700 -1,020 Descending Boston Center
11:32AM 42.4119 -73.2556 63° Northeast 476 548 20,700 -1,020 Descending Boston Center
11:33AM 42.4736 -73.1044 61° Northeast 466 536 19,700 -900 Descending Boston Center
11:34AM 42.5347 -72.9528 61° Northeast 457 526 19,000 -360 Descending Boston Center
11:35AM 42.6000 -72.7869 62° Northeast 452 520 19,000 -300 Level Boston Center
11:36AM 42.6544 -72.6547 61° Northeast 452 520 18,500 -1,440 Descending Boston Center
11:37AM 42.7108 -72.5081 62° Northeast 447 514 16,100 -2,400 Descending Boston Center
11:38AM 42.7672 -72.3636 62° Northeast 440 506 13,700 -2,700 Descending Boston Center
11:39AM 42.8003 -72.1994 75° East 417 480 10,900 -1,740 Descending Boston Center
11:40AM 42.8125 -72.0750 82° East 384 442 10,300 -1,020 Descending Boston Center
11:41AM 42.8222 -71.9333 85° East 349 402 8,900 -1,380 Descending Boston Center
11:42AM 42.8322 -71.8228 83° East 329 379 7,600 -1,380 Descending Boston Center
11:43AM 42.8231 -71.6956 96° East 312 359 6,200 -1,260 Descending Boston Center
11:44AM 42.8161 -71.5939 95° East 301 346 5,100 -1,020 Descending Boston Center
11:45AM 42.8092 -71.4864 95° East 267 307 4,200 -840 Descending Boston Center
11:46AM 42.8042 -71.4186 96° East 218 251 3,500 -960 Descending Boston Center
11:47AM 42.8331 -71.3756 48° Northeast 138 159 2,300 -1,020 Descending Boston Center
11:48AM 42.8625 -71.3950 334° Northwest 107 123 1,500 -780 Descending Boston Center
11:49AM 42.8981 -71.4142 338° Northwest 126 145 800 -600 Descending Boston Center
11:50AM 42.9317 -71.4333 337° Northwest 131 151 400 4,140 Descending Boston Center
11:51AM 42.9631 -71.4556 333° Northwest 131 151 9,000 4,260 Climbing Boston Center
11:52AM 42.9944 -71.4750 336° Northwest 131 151 9,000  Level Boston Center
11:53AM 43.0258 -71.4972 333° Northwest 131 151 9,000  Level Boston Center
11:54AM 43.0447 -71.5083 337° Northwest 131 151 9,000  Level Boston Center
11:56AM 42.9328 -71.4358 157° South  Level Estimated
12:03PM 42.9328 -71.4358 157° South  Level Estimated
12:04PM 42.9328 -71.4358 157° South  Level Estimated
12:05PM 42.9328 -71.4358 157° South  Level Estimated
12:06PM 42.9328 -71.4358 157° South  Level Estimated
12:07PM 42.9328 -71.4358 157° South  Level Estimated